sensor_id;sensor_type;location;lat;lon;timestamp;pressure;altitude;pressure_sealevel;temperature;humidity
59588;BME280;45412;54.472;18.464;2023-10-19T00:02:54;99517.61;;;6.61;92.59
59588;BME280;45412;54.472;18.464;2023-10-19T00:05:41;99518.61;;;6.64;92.28
59588;BME280;45412;54.472;18.464;2023-10-19T00:08:27;99515.52;;;6.63;92.04
59588;BME280;45412;54.472;18.464;2023-10-19T00:11:22;99519.52;;;6.62;92.12
59588;BME280;45412;54.472;18.464;2023-10-19T00:16:28;99513.33;;;6.57;91.60
59588;BME280;45412;54.472;18.464;2023-10-19T00:19:23;99513.71;;;6.51;91.80
59588;BME280;45412;54.472;18.464;2023-10-19T00:22:16;99512.95;;;6.49;91.55
59588;BME280;45412;54.472;18.464;2023-10-19T00:25:09;99507.73;;;6.46;91.44
59588;BME280;45412;54.472;18.464;2023-10-19T00:28:08;99508.35;;;6.45;91.27
59588;BME280;45412;54.472;18.464;2023-10-19T00:30:56;99507.04;;;6.43;91.27
59588;BME280;45412;54.472;18.464;2023-10-19T00:33:56;99506.09;;;6.41;91.38
59588;BME280;45412;54.472;18.464;2023-10-19T00:36:44;99502.42;;;6.41;91.54
59588;BME280;45412;54.472;18.464;2023-10-19T00:39:37;99503.02;;;6.40;92.03
59588;BME280;45412;54.472;18.464;2023-10-19T00:42:31;99500.69;;;6.38;92.36
59588;BME280;45412;54.472;18.464;2023-10-19T00:45:20;99492.27;;;6.35;92.54
59588;BME280;45412;54.472;18.464;2023-10-19T00:48:13;99486.57;;;6.31;92.87
59588;BME280;45412;54.472;18.464;2023-10-19T00:51:02;99487.12;;;6.28;93.17
59588;BME280;45412;54.472;18.464;2023-10-19T00:57:04;99481.30;;;6.26;93.48
59588;BME280;45412;54.472;18.464;2023-10-19T00:59:58;99473.89;;;6.26;93.61
59588;BME280;45412;54.472;18.464;2023-10-19T01:03:00;99470.86;;;6.21;93.31
59588;BME280;45412;54.472;18.464;2023-10-19T01:05:48;99467.98;;;6.17;93.24
59588;BME280;45412;54.472;18.464;2023-10-19T01:08:38;99466.33;;;6.12;94.00
59588;BME280;45412;54.472;18.464;2023-10-19T01:11:29;99465.59;;;6.08;93.44
59588;BME280;45412;54.472;18.464;2023-10-19T01:14:19;99456.89;;;6.04;93.69
59588;BME280;45412;54.472;18.464;2023-10-19T01:17:09;99451.77;;;5.99;93.64
59588;BME280;45412;54.472;18.464;2023-10-19T01:20:00;99445.80;;;5.93;93.22
59588;BME280;45412;54.472;18.464;2023-10-19T01:22:58;99443.44;;;5.86;93.27
59588;BME280;45412;54.472;18.464;2023-10-19T01:25:58;99443.40;;;5.81;92.41
59588;BME280;45412;54.472;18.464;2023-10-19T01:28:46;99441.23;;;5.80;91.95
59588;BME280;45412;54.472;18.464;2023-10-19T01:31:47;99439.98;;;5.80;91.52
59588;BME280;45412;54.472;18.464;2023-10-19T01:34:44;99435.66;;;5.82;91.11
59588;BME280;45412;54.472;18.464;2023-10-19T01:37:32;99431.32;;;5.83;90.54
59588;BME280;45412;54.472;18.464;2023-10-19T01:40:25;99425.50;;;5.86;90.49
59588;BME280;45412;54.472;18.464;2023-10-19T01:43:22;99422.30;;;5.89;90.19
59588;BME280;45412;54.472;18.464;2023-10-19T01:46:19;99411.39;;;5.92;90.19
59588;BME280;45412;54.472;18.464;2023-10-19T01:49:11;99402.77;;;5.94;89.47
59588;BME280;45412;54.472;18.464;2023-10-19T01:52:00;99399.30;;;5.96;89.28
59588;BME280;45412;54.472;18.464;2023-10-19T01:54:50;99399.05;;;5.97;89.18
59588;BME280;45412;54.472;18.464;2023-10-19T01:57:46;99398.31;;;5.98;89.25
59588;BME280;45412;54.472;18.464;2023-10-19T02:00:34;99399.33;;;5.98;89.32
59588;BME280;45412;54.472;18.464;2023-10-19T02:03:25;99399.63;;;5.99;89.01
59588;BME280;45412;54.472;18.464;2023-10-19T02:06:16;99389.92;;;6.00;89.25
59588;BME280;45412;54.472;18.464;2023-10-19T02:12:10;99386.63;;;5.95;90.17
59588;BME280;45412;54.472;18.464;2023-10-19T02:14:58;99383.11;;;5.90;90.57
59588;BME280;45412;54.472;18.464;2023-10-19T02:17:46;99373.26;;;5.85;90.41
59588;BME280;45412;54.472;18.464;2023-10-19T02:20:36;99365.38;;;5.79;90.70
59588;BME280;45412;54.472;18.464;2023-10-19T02:23:28;99362.20;;;5.74;90.60
59588;BME280;45412;54.472;18.464;2023-10-19T02:26:18;99361.20;;;5.71;91.14
59588;BME280;45412;54.472;18.464;2023-10-19T02:29:08;99355.40;;;5.68;91.28
59588;BME280;45412;54.472;18.464;2023-10-19T02:31:57;99354.82;;;5.67;91.53
59588;BME280;45412;54.472;18.464;2023-10-19T02:34:51;99352.52;;;5.67;91.65
59588;BME280;45412;54.472;18.464;2023-10-19T02:37:39;99352.16;;;5.67;91.83
59588;BME280;45412;54.472;18.464;2023-10-19T02:40:28;99351.04;;;5.68;92.05
59588;BME280;45412;54.472;18.464;2023-10-19T02:43:19;99349.08;;;5.66;92.19
59588;BME280;45412;54.472;18.464;2023-10-19T02:46:08;99346.05;;;5.63;92.10
59588;BME280;45412;54.472;18.464;2023-10-19T02:49:06;99343.14;;;5.60;92.30
59588;BME280;45412;54.472;18.464;2023-10-19T02:52:10;99347.63;;;5.56;92.47
59588;BME280;45412;54.472;18.464;2023-10-19T02:55:01;99339.20;;;5.53;92.81
59588;BME280;45412;54.472;18.464;2023-10-19T02:57:52;99338.75;;;5.49;92.54
59588;BME280;45412;54.472;18.464;2023-10-19T03:00:40;99336.95;;;5.44;92.83
59588;BME280;45412;54.472;18.464;2023-10-19T03:03:29;99337.15;;;5.41;93.43
59588;BME280;45412;54.472;18.464;2023-10-19T03:06:21;99331.84;;;5.39;93.74
59588;BME280;45412;54.472;18.464;2023-10-19T03:09:10;99330.40;;;5.37;93.82
59588;BME280;45412;54.472;18.464;2023-10-19T03:12:10;99321.75;;;5.33;94.11
59588;BME280;45412;54.472;18.464;2023-10-19T03:14:59;99316.98;;;5.28;94.31
59588;BME280;45412;54.472;18.464;2023-10-19T03:17:48;99314.86;;;5.22;94.16
59588;BME280;45412;54.472;18.464;2023-10-19T03:20:37;99311.10;;;5.19;94.71
59588;BME280;45412;54.472;18.464;2023-10-19T03:23:25;99311.47;;;5.16;95.09
59588;BME280;45412;54.472;18.464;2023-10-19T03:26:14;99306.98;;;5.11;95.23
59588;BME280;45412;54.472;18.464;2023-10-19T03:29:06;99304.45;;;5.05;95.55
59588;BME280;45412;54.472;18.464;2023-10-19T03:32:01;99297.95;;;4.99;95.78
59588;BME280;45412;54.472;18.464;2023-10-19T03:34:49;99292.95;;;4.95;96.28
59588;BME280;45412;54.472;18.464;2023-10-19T03:37:38;99293.02;;;4.94;96.46
59588;BME280;45412;54.472;18.464;2023-10-19T03:40:26;99287.22;;;4.91;96.78
59588;BME280;45412;54.472;18.464;2023-10-19T03:43:26;99281.08;;;4.88;96.70
59588;BME280;45412;54.472;18.464;2023-10-19T03:46:15;99274.52;;;4.89;97.37
59588;BME280;45412;54.472;18.464;2023-10-19T03:49:16;99276.32;;;4.89;97.23
59588;BME280;45412;54.472;18.464;2023-10-19T03:52:07;99276.30;;;4.89;97.44
59588;BME280;45412;54.472;18.464;2023-10-19T03:54:55;99273.69;;;4.89;97.42
59588;BME280;45412;54.472;18.464;2023-10-19T03:57:45;99273.27;;;4.87;97.62
59588;BME280;45412;54.472;18.464;2023-10-19T04:00:44;99272.43;;;4.86;98.63
59588;BME280;45412;54.472;18.464;2023-10-19T04:03:32;99273.38;;;4.88;99.08
59588;BME280;45412;54.472;18.464;2023-10-19T04:06:23;99269.20;;;4.90;99.65
59588;BME280;45412;54.472;18.464;2023-10-19T04:09:11;99262.35;;;4.95;99.89
59588;BME280;45412;54.472;18.464;2023-10-19T04:12:03;99261.15;;;5.03;99.97
59588;BME280;45412;54.472;18.464;2023-10-19T04:14:51;99263.56;;;5.11;100.00
59588;BME280;45412;54.472;18.464;2023-10-19T04:17:39;99269.55;;;5.19;100.00
59588;BME280;45412;54.472;18.464;2023-10-19T04:20:30;99267.39;;;5.25;100.00
59588;BME280;45412;54.472;18.464;2023-10-19T04:23:36;99260.39;;;5.32;100.00
59588;BME280;45412;54.472;18.464;2023-10-19T04:26:25;99255.88;;;5.42;100.00
59588;BME280;45412;54.472;18.464;2023-10-19T04:29:14;99256.64;;;5.51;99.98
59588;BME280;45412;54.472;18.464;2023-10-19T04:32:06;99256.80;;;5.59;99.95
59588;BME280;45412;54.472;18.464;2023-10-19T04:34:55;99252.46;;;5.66;99.93
59588;BME280;45412;54.472;18.464;2023-10-19T04:37:43;99256.98;;;5.71;99.97
59588;BME280;45412;54.472;18.464;2023-10-19T04:40:33;99254.45;;;5.77;100.00
59588;BME280;45412;54.472;18.464;2023-10-19T04:43:24;99255.29;;;5.83;99.97
59588;BME280;45412;54.472;18.464;2023-10-19T04:46:12;99257.80;;;5.87;100.00
59588;BME280;45412;54.472;18.464;2023-10-19T04:49:00;99253.84;;;5.91;100.00
59588;BME280;45412;54.472;18.464;2023-10-19T04:51:49;99249.70;;;5.97;100.00
59588;BME280;45412;54.472;18.464;2023-10-19T04:54:37;99244.87;;;6.04;100.00
59588;BME280;45412;54.472;18.464;2023-10-19T04:57:25;99244.11;;;6.09;100.00
59588;BME280;45412;54.472;18.464;2023-10-19T05:00:17;99245.16;;;6.14;100.00
59588;BME280;45412;54.472;18.464;2023-10-19T05:03:07;99248.16;;;6.17;100.00
59588;BME280;45412;54.472;18.464;2023-10-19T05:05:56;99248.02;;;6.19;100.00
59588;BME280;45412;54.472;18.464;2023-10-19T05:08:45;99254.02;;;6.21;100.00
59588;BME280;45412;54.472;18.464;2023-10-19T05:11:34;99252.73;;;6.19;100.00
59588;BME280;45412;54.472;18.464;2023-10-19T05:14:23;99249.96;;;6.14;100.00
59588;BME280;45412;54.472;18.464;2023-10-19T05:17:11;99251.42;;;6.13;100.00
59588;BME280;45412;54.472;18.464;2023-10-19T05:20:00;99242.21;;;6.09;100.00
59588;BME280;45412;54.472;18.464;2023-10-19T05:22:49;99235.67;;;6.04;100.00
59588;BME280;45412;54.472;18.464;2023-10-19T05:25:37;99233.84;;;6.03;100.00
59588;BME280;45412;54.472;18.464;2023-10-19T05:28:26;99238.62;;;6.02;100.00
59588;BME280;45412;54.472;18.464;2023-10-19T05:31:14;99231.84;;;6.04;100.00
59588;BME280;45412;54.472;18.464;2023-10-19T05:34:03;99234.79;;;6.04;100.00
59588;BME280;45412;54.472;18.464;2023-10-19T05:36:52;99236.98;;;6.03;100.00
59588;BME280;45412;54.472;18.464;2023-10-19T05:39:43;99235.95;;;6.03;100.00
59588;BME280;45412;54.472;18.464;2023-10-19T05:42:32;99233.02;;;6.00;100.00
59588;BME280;45412;54.472;18.464;2023-10-19T05:45:23;99228.19;;;5.98;100.00
59588;BME280;45412;54.472;18.464;2023-10-19T05:48:11;99229.98;;;5.97;100.00
59588;BME280;45412;54.472;18.464;2023-10-19T05:51:01;99229.36;;;5.96;100.00
59588;BME280;45412;54.472;18.464;2023-10-19T05:53:49;99230.41;;;5.96;100.00
59588;BME280;45412;54.472;18.464;2023-10-19T05:56:38;99235.69;;;5.93;100.00
59588;BME280;45412;54.472;18.464;2023-10-19T05:59:26;99240.21;;;5.94;100.00
59588;BME280;45412;54.472;18.464;2023-10-19T06:02:17;99238.29;;;5.94;100.00
59588;BME280;45412;54.472;18.464;2023-10-19T06:05:19;99235.02;;;5.93;100.00
59588;BME280;45412;54.472;18.464;2023-10-19T06:08:07;99232.33;;;5.91;100.00
59588;BME280;45412;54.472;18.464;2023-10-19T06:10:56;99240.64;;;5.91;100.00
59588;BME280;45412;54.472;18.464;2023-10-19T06:13:46;99238.30;;;5.92;100.00
59588;BME280;45412;54.472;18.464;2023-10-19T06:16:34;99238.91;;;5.90;100.00
59588;BME280;45412;54.472;18.464;2023-10-19T06:19:22;99242.62;;;5.90;100.00
59588;BME280;45412;54.472;18.464;2023-10-19T06:22:10;99241.41;;;5.90;100.00
59588;BME280;45412;54.472;18.464;2023-10-19T06:25:00;99238.37;;;5.91;100.00
59588;BME280;45412;54.472;18.464;2023-10-19T06:27:49;99236.50;;;5.90;100.00
59588;BME280;45412;54.472;18.464;2023-10-19T06:30:38;99241.39;;;5.88;100.00
59588;BME280;45412;54.472;18.464;2023-10-19T06:33:28;99246.40;;;5.86;100.00
59588;BME280;45412;54.472;18.464;2023-10-19T06:36:16;99251.10;;;5.85;100.00
59588;BME280;45412;54.472;18.464;2023-10-19T06:39:05;99253.92;;;5.85;100.00
59588;BME280;45412;54.472;18.464;2023-10-19T06:41:54;99256.58;;;5.85;100.00
59588;BME280;45412;54.472;18.464;2023-10-19T06:44:42;99253.52;;;5.88;100.00
59588;BME280;45412;54.472;18.464;2023-10-19T06:47:31;99248.63;;;5.90;100.00
59588;BME280;45412;54.472;18.464;2023-10-19T06:50:22;99248.98;;;5.90;100.00
59588;BME280;45412;54.472;18.464;2023-10-19T06:53:10;99252.15;;;5.90;100.00
59588;BME280;45412;54.472;18.464;2023-10-19T06:56:00;99245.31;;;5.87;100.00
59588;BME280;45412;54.472;18.464;2023-10-19T06:58:48;99248.77;;;5.88;100.00
59588;BME280;45412;54.472;18.464;2023-10-19T07:01:37;99246.30;;;5.88;100.00
59588;BME280;45412;54.472;18.464;2023-10-19T07:04:25;99237.41;;;5.87;100.00
59588;BME280;45412;54.472;18.464;2023-10-19T07:07:13;99242.26;;;5.88;100.00
59588;BME280;45412;54.472;18.464;2023-10-19T07:10:02;99242.02;;;5.89;100.00
59588;BME280;45412;54.472;18.464;2023-10-19T07:12:53;99241.77;;;5.90;100.00
59588;BME280;45412;54.472;18.464;2023-10-19T07:15:41;99241.67;;;5.91;100.00
59588;BME280;45412;54.472;18.464;2023-10-19T07:18:32;99243.20;;;5.92;99.97
59588;BME280;45412;54.472;18.464;2023-10-19T07:21:20;99243.48;;;5.93;100.00
59588;BME280;45412;54.472;18.464;2023-10-19T07:24:09;99240.47;;;5.96;100.00
59588;BME280;45412;54.472;18.464;2023-10-19T07:26:59;99235.20;;;5.99;99.62
59588;BME280;45412;54.472;18.464;2023-10-19T07:30:03;99239.89;;;5.99;98.34
59588;BME280;45412;54.472;18.464;2023-10-19T07:32:56;99243.27;;;6.01;98.93
59588;BME280;45412;54.472;18.464;2023-10-19T07:35:50;99241.80;;;6.02;99.28
59588;BME280;45412;54.472;18.464;2023-10-19T07:38:47;99241.91;;;6.06;99.53
59588;BME280;45412;54.472;18.464;2023-10-19T07:41:36;99237.34;;;6.05;98.80
59588;BME280;45412;54.472;18.464;2023-10-19T07:44:24;99243.46;;;6.06;99.09
59588;BME280;45412;54.472;18.464;2023-10-19T07:47:13;99235.30;;;6.07;98.82
59588;BME280;45412;54.472;18.464;2023-10-19T07:50:01;99236.02;;;6.09;98.57
59588;BME280;45412;54.472;18.464;2023-10-19T07:52:52;99231.86;;;6.13;97.98
59588;BME280;45412;54.472;18.464;2023-10-19T07:55:41;99230.08;;;6.16;97.72
59588;BME280;45412;54.472;18.464;2023-10-19T07:58:31;99219.38;;;6.18;97.98
59588;BME280;45412;54.472;18.464;2023-10-19T08:01:19;99216.88;;;6.18;96.75
59588;BME280;45412;54.472;18.464;2023-10-19T08:04:08;99215.33;;;6.20;96.15
59588;BME280;45412;54.472;18.464;2023-10-19T08:06:57;99207.92;;;6.23;96.59
59588;BME280;45412;54.472;18.464;2023-10-19T08:09:46;99210.83;;;6.24;96.40
59588;BME280;45412;54.472;18.464;2023-10-19T08:12:34;99211.52;;;6.24;96.07
59588;BME280;45412;54.472;18.464;2023-10-19T08:15:23;99215.48;;;6.27;96.32
59588;BME280;45412;54.472;18.464;2023-10-19T08:18:12;99215.74;;;6.29;96.08
59588;BME280;45412;54.472;18.464;2023-10-19T08:21:03;99217.66;;;6.31;96.18
59588;BME280;45412;54.472;18.464;2023-10-19T08:23:50;99214.14;;;6.32;95.24
59588;BME280;45412;54.472;18.464;2023-10-19T08:26:40;99210.65;;;6.34;95.10
59588;BME280;45412;54.472;18.464;2023-10-19T08:29:29;99207.02;;;6.33;95.45
59588;BME280;45412;54.472;18.464;2023-10-19T08:32:18;99205.54;;;6.31;95.59
59588;BME280;45412;54.472;18.464;2023-10-19T08:35:06;99209.30;;;6.33;96.27
59588;BME280;45412;54.472;18.464;2023-10-19T08:37:56;99200.91;;;6.34;96.78
59588;BME280;45412;54.472;18.464;2023-10-19T08:40:48;99199.39;;;6.38;97.02
59588;BME280;45412;54.472;18.464;2023-10-19T08:43:38;99195.86;;;6.41;97.60
59588;BME280;45412;54.472;18.464;2023-10-19T08:46:27;99194.55;;;6.44;97.92
59588;BME280;45412;54.472;18.464;2023-10-19T08:49:16;99192.41;;;6.47;97.62
59588;BME280;45412;54.472;18.464;2023-10-19T08:52:07;99187.86;;;6.48;96.50
59588;BME280;45412;54.472;18.464;2023-10-19T08:54:55;99184.13;;;6.49;95.65
59588;BME280;45412;54.472;18.464;2023-10-19T08:57:44;99182.30;;;6.53;96.01
59588;BME280;45412;54.472;18.464;2023-10-19T09:00:45;99180.00;;;6.53;95.73
59588;BME280;45412;54.472;18.464;2023-10-19T09:03:36;99173.52;;;6.52;95.48
59588;BME280;45412;54.472;18.464;2023-10-19T09:06:25;99175.30;;;6.56;95.95
59588;BME280;45412;54.472;18.464;2023-10-19T09:09:13;99175.41;;;6.60;95.45
59588;BME280;45412;54.472;18.464;2023-10-19T09:12:08;99174.27;;;6.61;95.07
59588;BME280;45412;54.472;18.464;2023-10-19T09:14:57;99175.05;;;6.60;94.96
59588;BME280;45412;54.472;18.464;2023-10-19T09:17:45;99176.69;;;6.61;95.67
59588;BME280;45412;54.472;18.464;2023-10-19T09:20:34;99170.38;;;6.63;96.29
59588;BME280;45412;54.472;18.464;2023-10-19T09:23:24;99166.56;;;6.65;96.58
59588;BME280;45412;54.472;18.464;2023-10-19T09:26:13;99168.51;;;6.67;96.83
59588;BME280;45412;54.472;18.464;2023-10-19T09:29:01;99165.54;;;6.71;96.88
59588;BME280;45412;54.472;18.464;2023-10-19T09:31:50;99164.82;;;6.74;96.18
59588;BME280;45412;54.472;18.464;2023-10-19T09:34:40;99164.00;;;6.73;95.68
59588;BME280;45412;54.472;18.464;2023-10-19T09:37:32;99161.38;;;6.70;95.33
59588;BME280;45412;54.472;18.464;2023-10-19T09:40:22;99159.90;;;6.69;95.81
59588;BME280;45412;54.472;18.464;2023-10-19T09:43:19;99151.18;;;6.66;95.78
59588;BME280;45412;54.472;18.464;2023-10-19T09:46:14;99155.13;;;6.64;95.76
59588;BME280;45412;54.472;18.464;2023-10-19T09:49:09;99149.20;;;6.61;96.03
59588;BME280;45412;54.472;18.464;2023-10-19T09:51:59;99148.20;;;6.58;96.01
59588;BME280;45412;54.472;18.464;2023-10-19T09:55:08;99139.58;;;6.51;96.11
59588;BME280;45412;54.472;18.464;2023-10-19T09:58:20;99145.13;;;6.52;96.16
59588;BME280;45412;54.472;18.464;2023-10-19T10:01:11;99141.84;;;6.52;96.72
59588;BME280;45412;54.472;18.464;2023-10-19T10:04:03;99142.23;;;6.53;96.45
59588;BME280;45412;54.472;18.464;2023-10-19T10:09:42;99139.11;;;6.59;94.11
59588;BME280;45412;54.472;18.464;2023-10-19T10:12:34;99139.12;;;6.69;93.41
59588;BME280;45412;54.472;18.464;2023-10-19T10:15:40;99133.08;;;6.76;92.96
59588;BME280;45412;54.472;18.464;2023-10-19T10:18:34;99123.33;;;6.81;92.29
59588;BME280;45412;54.472;18.464;2023-10-19T10:21:23;99119.91;;;6.80;91.54
59588;BME280;45412;54.472;18.464;2023-10-19T10:24:14;99118.77;;;6.81;91.52
59588;BME280;45412;54.472;18.464;2023-10-19T10:27:04;99119.11;;;6.81;91.72
59588;BME280;45412;54.472;18.464;2023-10-19T10:30:01;99115.45;;;6.78;91.03
59588;BME280;45412;54.472;18.464;2023-10-19T10:32:54;99111.58;;;6.72;90.78
59588;BME280;45412;54.472;18.464;2023-10-19T10:38:35;99099.15;;;6.61;91.11
59588;BME280;45412;54.472;18.464;2023-10-19T10:41:25;99091.77;;;6.57;91.24
59588;BME280;45412;54.472;18.464;2023-10-19T10:44:16;99087.75;;;6.56;91.06
59588;BME280;45412;54.472;18.464;2023-10-19T10:47:24;99092.40;;;6.62;91.44
59588;BME280;45412;54.472;18.464;2023-10-19T10:50:19;99089.34;;;6.68;91.09
59588;BME280;45412;54.472;18.464;2023-10-19T10:53:12;99082.33;;;6.78;91.01
59588;BME280;45412;54.472;18.464;2023-10-19T10:56:00;99074.88;;;6.86;90.35
59588;BME280;45412;54.472;18.464;2023-10-19T10:58:49;99077.18;;;6.92;89.73
59588;BME280;45412;54.472;18.464;2023-10-19T11:01:38;99054.20;;;6.86;88.38
59588;BME280;45412;54.472;18.464;2023-10-19T11:04:26;99070.89;;;6.96;88.48
59588;BME280;45412;54.472;18.464;2023-10-19T11:07:19;99067.02;;;7.03;89.75
59588;BME280;45412;54.472;18.464;2023-10-19T11:10:08;99064.31;;;7.06;89.22
59588;BME280;45412;54.472;18.464;2023-10-19T11:13:08;99059.02;;;7.08;88.02
59588;BME280;45412;54.472;18.464;2023-10-19T11:15:56;99052.78;;;7.18;88.15
59588;BME280;45412;54.472;18.464;2023-10-19T11:18:48;99044.39;;;7.19;88.13
59588;BME280;45412;54.472;18.464;2023-10-19T11:21:38;99036.33;;;7.21;87.76
59588;BME280;45412;54.472;18.464;2023-10-19T11:24:26;99035.17;;;7.20;87.90
59588;BME280;45412;54.472;18.464;2023-10-19T11:27:28;99034.56;;;7.23;88.29
59588;BME280;45412;54.472;18.464;2023-10-19T11:30:30;99027.66;;;7.28;88.34
59588;BME280;45412;54.472;18.464;2023-10-19T11:33:21;99020.67;;;7.24;87.97
59588;BME280;45412;54.472;18.464;2023-10-19T11:36:12;99018.60;;;7.20;87.20
59588;BME280;45412;54.472;18.464;2023-10-19T11:39:00;99016.57;;;7.12;87.28
59588;BME280;45412;54.472;18.464;2023-10-19T11:41:49;99016.17;;;7.10;88.17
59588;BME280;45412;54.472;18.464;2023-10-19T11:44:38;99013.19;;;7.08;88.65
59588;BME280;45412;54.472;18.464;2023-10-19T11:47:25;99009.52;;;7.03;88.83
59588;BME280;45412;54.472;18.464;2023-10-19T11:50:14;99006.16;;;7.05;88.95
59588;BME280;45412;54.472;18.464;2023-10-19T11:53:06;99006.02;;;7.03;88.33
59588;BME280;45412;54.472;18.464;2023-10-19T11:55:54;99006.81;;;7.02;88.19
59588;BME280;45412;54.472;18.464;2023-10-19T11:58:42;99008.95;;;7.01;87.49
59588;BME280;45412;54.472;18.464;2023-10-19T12:01:32;99004.67;;;7.02;86.91
59588;BME280;45412;54.472;18.464;2023-10-19T12:04:20;99009.71;;;7.05;86.70
59588;BME280;45412;54.472;18.464;2023-10-19T12:07:08;99009.64;;;7.13;86.48
59588;BME280;45412;54.472;18.464;2023-10-19T12:09:57;99004.15;;;7.15;83.57
59588;BME280;45412;54.472;18.464;2023-10-19T12:12:46;99002.72;;;7.22;83.76
59588;BME280;45412;54.472;18.464;2023-10-19T12:15:49;99005.30;;;7.25;83.77
59588;BME280;45412;54.472;18.464;2023-10-19T12:18:44;99004.10;;;7.25;83.59
59588;BME280;45412;54.472;18.464;2023-10-19T12:21:33;99004.03;;;7.23;84.49
59588;BME280;45412;54.472;18.464;2023-10-19T12:24:21;99003.45;;;7.24;84.70
59588;BME280;45412;54.472;18.464;2023-10-19T12:27:10;99005.11;;;7.25;84.39
59588;BME280;45412;54.472;18.464;2023-10-19T12:30:01;98996.98;;;7.23;83.76
59588;BME280;45412;54.472;18.464;2023-10-19T12:33:01;98988.60;;;7.18;82.95
59588;BME280;45412;54.472;18.464;2023-10-19T12:35:53;98985.08;;;7.11;83.31
59588;BME280;45412;54.472;18.464;2023-10-19T12:38:45;98984.76;;;7.06;83.47
59588;BME280;45412;54.472;18.464;2023-10-19T12:41:34;98980.83;;;7.07;84.08
59588;BME280;45412;54.472;18.464;2023-10-19T12:44:22;98981.23;;;7.10;84.38
59588;BME280;45412;54.472;18.464;2023-10-19T12:47:11;98974.46;;;7.07;83.33
59588;BME280;45412;54.472;18.464;2023-10-19T12:50:04;98968.17;;;7.10;83.17
59588;BME280;45412;54.472;18.464;2023-10-19T12:52:54;98965.84;;;7.11;83.47
59588;BME280;45412;54.472;18.464;2023-10-19T12:55:44;98964.20;;;7.07;84.01
59588;BME280;45412;54.472;18.464;2023-10-19T12:58:32;98962.47;;;7.00;83.92
59588;BME280;45412;54.472;18.464;2023-10-19T13:01:21;98958.79;;;6.93;84.71
59588;BME280;45412;54.472;18.464;2023-10-19T13:04:09;98959.96;;;6.88;83.90
59588;BME280;45412;54.472;18.464;2023-10-19T13:07:06;98960.69;;;6.83;83.63
59588;BME280;45412;54.472;18.464;2023-10-19T13:09:55;98957.55;;;6.80;84.06
59588;BME280;45412;54.472;18.464;2023-10-19T13:12:45;98952.67;;;6.72;84.11
59588;BME280;45412;54.472;18.464;2023-10-19T13:15:36;98951.23;;;6.66;84.69
59588;BME280;45412;54.472;18.464;2023-10-19T13:18:24;98952.69;;;6.59;84.96
59588;BME280;45412;54.472;18.464;2023-10-19T13:21:21;98950.95;;;6.54;85.92
59588;BME280;45412;54.472;18.464;2023-10-19T13:24:18;98951.77;;;6.50;86.06
59588;BME280;45412;54.472;18.464;2023-10-19T13:27:09;98954.80;;;6.45;85.93
59588;BME280;45412;54.472;18.464;2023-10-19T13:29:58;98953.60;;;6.36;85.94
59588;BME280;45412;54.472;18.464;2023-10-19T13:32:46;98951.90;;;6.31;86.32
59588;BME280;45412;54.472;18.464;2023-10-19T13:35:40;98944.27;;;6.24;86.48
59588;BME280;45412;54.472;18.464;2023-10-19T13:38:28;98941.10;;;6.20;86.48
59588;BME280;45412;54.472;18.464;2023-10-19T13:41:17;98942.95;;;6.19;86.64
59588;BME280;45412;54.472;18.464;2023-10-19T13:44:05;98940.09;;;6.17;86.29
59588;BME280;45412;54.472;18.464;2023-10-19T13:46:54;98942.27;;;6.16;86.19
59588;BME280;45412;54.472;18.464;2023-10-19T13:49:43;98930.56;;;6.12;86.43
59588;BME280;45412;54.472;18.464;2023-10-19T13:52:31;98928.58;;;6.09;86.50
59588;BME280;45412;54.472;18.464;2023-10-19T13:55:20;98930.36;;;6.06;86.47
59588;BME280;45412;54.472;18.464;2023-10-19T13:58:09;98931.67;;;6.05;86.58
59588;BME280;45412;54.472;18.464;2023-10-19T14:00:57;98930.04;;;6.05;86.75
59588;BME280;45412;54.472;18.464;2023-10-19T14:03:45;98930.42;;;6.05;86.40
59588;BME280;45412;54.472;18.464;2023-10-19T14:06:33;98920.57;;;6.01;86.58
59588;BME280;45412;54.472;18.464;2023-10-19T14:09:21;98920.41;;;5.98;87.04
59588;BME280;45412;54.472;18.464;2023-10-19T14:12:12;98925.95;;;5.96;87.22
59588;BME280;45412;54.472;18.464;2023-10-19T14:15:00;98922.31;;;5.98;87.19
59588;BME280;45412;54.472;18.464;2023-10-19T14:17:49;98917.90;;;5.99;87.39
59588;BME280;45412;54.472;18.464;2023-10-19T14:20:38;98915.27;;;5.98;88.06
59588;BME280;45412;54.472;18.464;2023-10-19T14:23:28;98918.40;;;5.96;87.74
59588;BME280;45412;54.472;18.464;2023-10-19T14:26:16;98916.08;;;5.94;87.19
59588;BME280;45412;54.472;18.464;2023-10-19T14:29:05;98915.35;;;5.95;87.52
59588;BME280;45412;54.472;18.464;2023-10-19T14:31:54;98916.25;;;5.97;87.43
59588;BME280;45412;54.472;18.464;2023-10-19T14:34:42;98917.30;;;5.97;86.71
59588;BME280;45412;54.472;18.464;2023-10-19T14:37:30;98916.17;;;5.95;86.34
59588;BME280;45412;54.472;18.464;2023-10-19T14:40:22;98913.14;;;5.93;86.14
59588;BME280;45412;54.472;18.464;2023-10-19T14:43:14;98919.76;;;5.92;86.24
59588;BME280;45412;54.472;18.464;2023-10-19T14:46:05;98917.10;;;5.90;86.02
59588;BME280;45412;54.472;18.464;2023-10-19T14:48:54;98917.68;;;5.90;85.81
59588;BME280;45412;54.472;18.464;2023-10-19T14:51:42;98915.34;;;5.88;85.80
59588;BME280;45412;54.472;18.464;2023-10-19T14:54:30;98911.48;;;5.85;85.76
59588;BME280;45412;54.472;18.464;2023-10-19T14:57:19;98905.85;;;5.83;84.94
59588;BME280;45412;54.472;18.464;2023-10-19T15:00:11;98909.17;;;5.79;84.56
59588;BME280;45412;54.472;18.464;2023-10-19T15:03:04;98907.70;;;5.75;84.77
59588;BME280;45412;54.472;18.464;2023-10-19T15:05:56;98908.02;;;5.73;84.57
59588;BME280;45412;54.472;18.464;2023-10-19T15:08:47;98903.02;;;5.72;84.52
59588;BME280;45412;54.472;18.464;2023-10-19T15:11:36;98901.98;;;5.69;84.70
59588;BME280;45412;54.472;18.464;2023-10-19T15:14:26;98907.12;;;5.69;84.80
59588;BME280;45412;54.472;18.464;2023-10-19T15:17:14;98898.69;;;5.68;84.36